sensor_id;sensor_type;location;lat;lon;timestamp;P1;durP1;ratioP1;P2;durP2;ratioP2
37647;SDS011;23490;53.656;10.076;2023-03-23T00:01:23;8.73;;;4.70;;
37647;SDS011;23490;53.656;10.076;2023-03-23T00:03:51;9.88;;;5.53;;
37647;SDS011;23490;53.656;10.076;2023-03-23T00:06:19;10.80;;;5.20;;
37647;SDS011;23490;53.656;10.076;2023-03-23T00:08:45;9.23;;;5.40;;
37647;SDS011;23490;53.656;10.076;2023-03-23T00:13:43;12.60;;;5.97;;
37647;SDS011;23490;53.656;10.076;2023-03-23T00:16:11;12.23;;;5.82;;
37647;SDS011;23490;53.656;10.076;2023-03-23T00:18:54;13.93;;;6.90;;
37647;SDS011;23490;53.656;10.076;2023-03-23T00:21:21;14.05;;;6.68;;
37647;SDS011;23490;53.656;10.076;2023-03-23T00:23:50;13.48;;;7.18;;
37647;SDS011;23490;53.656;10.076;2023-03-23T00:26:16;10.85;;;6.43;;
37647;SDS011;23490;53.656;10.076;2023-03-23T00:28:43;11.35;;;6.97;;
37647;SDS011;23490;53.656;10.076;2023-03-23T00:31:11;12.98;;;7.93;;
37647;SDS011;23490;53.656;10.076;2023-03-23T00:33:37;16.00;;;8.23;;
37647;SDS011;23490;53.656;10.076;2023-03-23T00:36:06;14.82;;;8.30;;
37647;SDS011;23490;53.656;10.076;2023-03-23T00:38:33;16.45;;;8.32;;
37647;SDS011;23490;53.656;10.076;2023-03-23T00:40:59;15.05;;;8.63;;
37647;SDS011;23490;53.656;10.076;2023-03-23T00:43:28;16.75;;;9.10;;
37647;SDS011;23490;53.656;10.076;2023-03-23T00:45:54;14.95;;;8.75;;
37647;SDS011;23490;53.656;10.076;2023-03-23T00:48:23;14.60;;;8.85;;
37647;SDS011;23490;53.656;10.076;2023-03-23T00:50:49;20.10;;;9.88;;
37647;SDS011;23490;53.656;10.076;2023-03-23T00:53:16;13.90;;;9.35;;
37647;SDS011;23490;53.656;10.076;2023-03-23T00:55:42;18.05;;;9.63;;
37647;SDS011;23490;53.656;10.076;2023-03-23T00:58:09;14.65;;;8.98;;
37647;SDS011;23490;53.656;10.076;2023-03-23T01:00:34;16.55;;;9.80;;
37647;SDS011;23490;53.656;10.076;2023-03-23T01:03:00;16.05;;;9.48;;
37647;SDS011;23490;53.656;10.076;2023-03-23T01:05:26;14.75;;;9.23;;
37647;SDS011;23490;53.656;10.076;2023-03-23T01:07:57;15.23;;;8.82;;
37647;SDS011;23490;53.656;10.076;2023-03-23T01:10:24;16.25;;;9.38;;
37647;SDS011;23490;53.656;10.076;2023-03-23T01:12:51;13.98;;;8.80;;
37647;SDS011;23490;53.656;10.076;2023-03-23T01:15:17;17.17;;;9.05;;
37647;SDS011;23490;53.656;10.076;2023-03-23T01:17:44;16.85;;;9.30;;
37647;SDS011;23490;53.656;10.076;2023-03-23T01:20:11;15.82;;;9.35;;
37647;SDS011;23490;53.656;10.076;2023-03-23T01:22:39;14.13;;;8.82;;
37647;SDS011;23490;53.656;10.076;2023-03-23T01:25:05;14.50;;;8.30;;
37647;SDS011;23490;53.656;10.076;2023-03-23T01:27:31;15.27;;;7.88;;
37647;SDS011;23490;53.656;10.076;2023-03-23T01:29:56;14.77;;;8.45;;
37647;SDS011;23490;53.656;10.076;2023-03-23T01:32:22;12.40;;;8.05;;
37647;SDS011;23490;53.656;10.076;2023-03-23T01:34:47;13.55;;;8.82;;
37647;SDS011;23490;53.656;10.076;2023-03-23T01:37:13;14.15;;;8.38;;
37647;SDS011;23490;53.656;10.076;2023-03-23T01:39:38;15.77;;;8.73;;
37647;SDS011;23490;53.656;10.076;2023-03-23T01:42:04;16.27;;;8.55;;
37647;SDS011;23490;53.656;10.076;2023-03-23T01:46:55;16.85;;;9.20;;
37647;SDS011;23490;53.656;10.076;2023-03-23T01:49:21;16.35;;;9.40;;
37647;SDS011;23490;53.656;10.076;2023-03-23T01:51:56;15.93;;;9.23;;
37647;SDS011;23490;53.656;10.076;2023-03-23T01:54:25;17.05;;;9.98;;
37647;SDS011;23490;53.656;10.076;2023-03-23T01:56:59;14.95;;;9.02;;
37647;SDS011;23490;53.656;10.076;2023-03-23T01:59:27;19.08;;;10.90;;
37647;SDS011;23490;53.656;10.076;2023-03-23T02:01:54;17.83;;;10.05;;
37647;SDS011;23490;53.656;10.076;2023-03-23T02:04:20;16.95;;;10.10;;
37647;SDS011;23490;53.656;10.076;2023-03-23T02:06:48;18.08;;;10.40;;
37647;SDS011;23490;53.656;10.076;2023-03-23T02:09:14;18.13;;;10.40;;
37647;SDS011;23490;53.656;10.076;2023-03-23T02:11:42;19.33;;;11.77;;
37647;SDS011;23490;53.656;10.076;2023-03-23T02:14:10;17.65;;;10.50;;
37647;SDS011;23490;53.656;10.076;2023-03-23T02:16:55;21.77;;;11.60;;
37647;SDS011;23490;53.656;10.076;2023-03-23T02:19:41;19.80;;;10.93;;
37647;SDS011;23490;53.656;10.076;2023-03-23T02:25:33;21.58;;;10.93;;
37647;SDS011;23490;53.656;10.076;2023-03-23T02:28:44;17.65;;;11.15;;
37647;SDS011;23490;53.656;10.076;2023-03-23T02:34:21;17.83;;;11.02;;
37647;SDS011;23490;53.656;10.076;2023-03-23T02:37:14;17.77;;;11.23;;
37647;SDS011;23490;53.656;10.076;2023-03-23T02:39:52;18.45;;;11.27;;
37647;SDS011;23490;53.656;10.076;2023-03-23T02:42:26;16.40;;;9.90;;
37647;SDS011;23490;53.656;10.076;2023-03-23T02:44:56;17.95;;;10.93;;
37647;SDS011;23490;53.656;10.076;2023-03-23T02:47:28;18.55;;;10.93;;
37647;SDS011;23490;53.656;10.076;2023-03-23T02:49:55;18.30;;;10.80;;
37647;SDS011;23490;53.656;10.076;2023-03-23T02:52:23;16.35;;;10.45;;
37647;SDS011;23490;53.656;10.076;2023-03-23T02:54:51;15.88;;;9.65;;
37647;SDS011;23490;53.656;10.076;2023-03-23T02:57:19;18.25;;;9.50;;
37647;SDS011;23490;53.656;10.076;2023-03-23T02:59:45;16.40;;;9.88;;
37647;SDS011;23490;53.656;10.076;2023-03-23T03:02:18;16.10;;;9.93;;
37647;SDS011;23490;53.656;10.076;2023-03-23T03:04:52;18.08;;;10.07;;
37647;SDS011;23490;53.656;10.076;2023-03-23T03:13:02;17.80;;;10.35;;
37647;SDS011;23490;53.656;10.076;2023-03-23T03:15:44;15.73;;;10.10;;
37647;SDS011;23490;53.656;10.076;2023-03-23T03:20:51;19.35;;;11.07;;
37647;SDS011;23490;53.656;10.076;2023-03-23T03:23:21;23.02;;;11.52;;
37647;SDS011;23490;53.656;10.076;2023-03-23T03:25:48;20.77;;;11.25;;
37647;SDS011;23490;53.656;10.076;2023-03-23T03:28:19;16.90;;;11.10;;
37647;SDS011;23490;53.656;10.076;2023-03-23T03:30:51;17.83;;;11.60;;
37647;SDS011;23490;53.656;10.076;2023-03-23T03:33:20;18.88;;;11.25;;
37647;SDS011;23490;53.656;10.076;2023-03-23T03:35:52;18.50;;;10.95;;
37647;SDS011;23490;53.656;10.076;2023-03-23T03:38:20;16.63;;;10.50;;
37647;SDS011;23490;53.656;10.076;2023-03-23T03:40:45;19.45;;;11.38;;
37647;SDS011;23490;53.656;10.076;2023-03-23T03:43:11;15.85;;;10.80;;
37647;SDS011;23490;53.656;10.076;2023-03-23T03:45:36;18.88;;;11.45;;
37647;SDS011;23490;53.656;10.076;2023-03-23T03:48:02;17.35;;;10.80;;
37647;SDS011;23490;53.656;10.076;2023-03-23T03:50:27;19.05;;;11.27;;
37647;SDS011;23490;53.656;10.076;2023-03-23T03:52:53;16.15;;;10.57;;
37647;SDS011;23490;53.656;10.076;2023-03-23T03:55:18;16.90;;;10.50;;
37647;SDS011;23490;53.656;10.076;2023-03-23T03:57:44;17.35;;;11.10;;
37647;SDS011;23490;53.656;10.076;2023-03-23T04:00:10;16.90;;;11.05;;
37647;SDS011;23490;53.656;10.076;2023-03-23T04:02:42;17.95;;;11.10;;
37647;SDS011;23490;53.656;10.076;2023-03-23T04:05:09;16.80;;;10.90;;
37647;SDS011;23490;53.656;10.076;2023-03-23T04:07:35;15.50;;;10.85;;
37647;SDS011;23490;53.656;10.076;2023-03-23T04:10:03;18.15;;;11.60;;
37647;SDS011;23490;53.656;10.076;2023-03-23T04:12:30;15.55;;;10.82;;
37647;SDS011;23490;53.656;10.076;2023-03-23T04:14:56;17.70;;;10.90;;
37647;SDS011;23490;53.656;10.076;2023-03-23T04:17:24;18.30;;;10.90;;
37647;SDS011;23490;53.656;10.076;2023-03-23T04:19:51;15.88;;;11.18;;
37647;SDS011;23490;53.656;10.076;2023-03-23T04:22:17;16.17;;;10.60;;
37647;SDS011;23490;53.656;10.076;2023-03-23T04:24:43;15.55;;;10.90;;
37647;SDS011;23490;53.656;10.076;2023-03-23T04:27:08;16.50;;;10.70;;
37647;SDS011;23490;53.656;10.076;2023-03-23T04:29:34;17.30;;;10.32;;
37647;SDS011;23490;53.656;10.076;2023-03-23T04:31:59;17.58;;;11.02;;
37647;SDS011;23490;53.656;10.076;2023-03-23T04:34:26;15.38;;;10.05;;
37647;SDS011;23490;53.656;10.076;2023-03-23T04:36:52;17.65;;;10.65;;
37647;SDS011;23490;53.656;10.076;2023-03-23T04:39:18;15.55;;;9.85;;
37647;SDS011;23490;53.656;10.076;2023-03-23T04:41:44;14.43;;;10.32;;
37647;SDS011;23490;53.656;10.076;2023-03-23T04:44:10;13.88;;;9.05;;
37647;SDS011;23490;53.656;10.076;2023-03-23T04:46:36;14.98;;;10.15;;
37647;SDS011;23490;53.656;10.076;2023-03-23T04:49:02;15.80;;;10.10;;
37647;SDS011;23490;53.656;10.076;2023-03-23T04:51:27;13.75;;;10.35;;
37647;SDS011;23490;53.656;10.076;2023-03-23T04:53:54;15.52;;;9.88;;
37647;SDS011;23490;53.656;10.076;2023-03-23T04:56:20;15.35;;;10.55;;
37647;SDS011;23490;53.656;10.076;2023-03-23T04:58:47;19.10;;;10.68;;
37647;SDS011;23490;53.656;10.076;2023-03-23T05:01:12;16.70;;;10.93;;
37647;SDS011;23490;53.656;10.076;2023-03-23T05:06:08;13.77;;;9.45;;
37647;SDS011;23490;53.656;10.076;2023-03-23T05:08:34;15.38;;;9.07;;
37647;SDS011;23490;53.656;10.076;2023-03-23T05:11:00;13.45;;;9.20;;
37647;SDS011;23490;53.656;10.076;2023-03-23T05:13:26;16.75;;;9.73;;
37647;SDS011;23490;53.656;10.076;2023-03-23T05:15:53;14.38;;;9.27;;
37647;SDS011;23490;53.656;10.076;2023-03-23T05:18:18;15.82;;;9.93;;
37647;SDS011;23490;53.656;10.076;2023-03-23T05:20:45;15.50;;;9.90;;
37647;SDS011;23490;53.656;10.076;2023-03-23T05:23:11;17.40;;;9.27;;
37647;SDS011;23490;53.656;10.076;2023-03-23T05:25:37;16.95;;;10.75;;
37647;SDS011;23490;53.656;10.076;2023-03-23T05:28:11;15.75;;;9.93;;
37647;SDS011;23490;53.656;10.076;2023-03-23T05:30:38;14.77;;;9.45;;
37647;SDS011;23490;53.656;10.076;2023-03-23T05:33:04;13.90;;;9.40;;
37647;SDS011;23490;53.656;10.076;2023-03-23T05:35:30;15.07;;;9.70;;
37647;SDS011;23490;53.656;10.076;2023-03-23T05:37:55;15.07;;;9.85;;
37647;SDS011;23490;53.656;10.076;2023-03-23T05:40:22;14.05;;;9.93;;
37647;SDS011;23490;53.656;10.076;2023-03-23T05:42:48;14.38;;;9.18;;
37647;SDS011;23490;53.656;10.076;2023-03-23T05:45:14;13.65;;;9.38;;
37647;SDS011;23490;53.656;10.076;2023-03-23T05:47:40;14.38;;;9.57;;
37647;SDS011;23490;53.656;10.076;2023-03-23T05:50:06;15.23;;;8.85;;
37647;SDS011;23490;53.656;10.076;2023-03-23T05:52:34;14.25;;;9.15;;
37647;SDS011;23490;53.656;10.076;2023-03-23T05:55:00;14.82;;;8.98;;
37647;SDS011;23490;53.656;10.076;2023-03-23T05:57:26;14.27;;;9.20;;
37647;SDS011;23490;53.656;10.076;2023-03-23T05:59:52;14.57;;;8.80;;
37647;SDS011;23490;53.656;10.076;2023-03-23T06:02:17;13.55;;;8.65;;
37647;SDS011;23490;53.656;10.076;2023-03-23T06:04:43;11.75;;;7.80;;
37647;SDS011;23490;53.656;10.076;2023-03-23T06:07:09;13.63;;;7.88;;
37647;SDS011;23490;53.656;10.076;2023-03-23T06:09:39;10.25;;;7.32;;
37647;SDS011;23490;53.656;10.076;2023-03-23T06:12:06;12.73;;;7.28;;
37647;SDS011;23490;53.656;10.076;2023-03-23T06:14:32;13.02;;;7.10;;
37647;SDS011;23490;53.656;10.076;2023-03-23T06:16:58;12.10;;;7.07;;
37647;SDS011;23490;53.656;10.076;2023-03-23T06:19:23;10.13;;;6.90;;
37647;SDS011;23490;53.656;10.076;2023-03-23T06:21:51;12.40;;;6.70;;
37647;SDS011;23490;53.656;10.076;2023-03-23T06:24:19;12.20;;;6.70;;
37647;SDS011;23490;53.656;10.076;2023-03-23T06:26:46;10.07;;;6.50;;
37647;SDS011;23490;53.656;10.076;2023-03-23T06:29:11;12.32;;;6.82;;
37647;SDS011;23490;53.656;10.076;2023-03-23T06:31:40;12.05;;;6.60;;
37647;SDS011;23490;53.656;10.076;2023-03-23T06:34:07;9.80;;;6.10;;
37647;SDS011;23490;53.656;10.076;2023-03-23T06:36:35;10.15;;;5.75;;
37647;SDS011;23490;53.656;10.076;2023-03-23T06:39:01;11.68;;;5.97;;
37647;SDS011;23490;53.656;10.076;2023-03-23T06:41:29;9.50;;;5.65;;
37647;SDS011;23490;53.656;10.076;2023-03-23T06:43:55;9.80;;;5.07;;
37647;SDS011;23490;53.656;10.076;2023-03-23T06:46:20;10.45;;;5.30;;
37647;SDS011;23490;53.656;10.076;2023-03-23T06:48:45;8.30;;;5.82;;
37647;SDS011;23490;53.656;10.076;2023-03-23T06:51:14;7.63;;;4.57;;
37647;SDS011;23490;53.656;10.076;2023-03-23T06:53:39;10.15;;;5.07;;
37647;SDS011;23490;53.656;10.076;2023-03-23T06:56:05;8.57;;;4.22;;
37647;SDS011;23490;53.656;10.076;2023-03-23T06:58:32;8.77;;;4.53;;
37647;SDS011;23490;53.656;10.076;2023-03-23T07:00:57;7.03;;;3.72;;
37647;SDS011;23490;53.656;10.076;2023-03-23T07:03:23;7.25;;;4.50;;
37647;SDS011;23490;53.656;10.076;2023-03-23T07:05:49;7.10;;;4.25;;
37647;SDS011;23490;53.656;10.076;2023-03-23T07:08:15;10.15;;;4.50;;
37647;SDS011;23490;53.656;10.076;2023-03-23T07:10:41;6.65;;;4.20;;
37647;SDS011;23490;53.656;10.076;2023-03-23T07:13:06;8.40;;;4.65;;
37647;SDS011;23490;53.656;10.076;2023-03-23T07:15:32;6.47;;;3.90;;
37647;SDS011;23490;53.656;10.076;2023-03-23T07:17:57;7.38;;;3.55;;
37647;SDS011;23490;53.656;10.076;2023-03-23T07:20:23;8.95;;;3.80;;
37647;SDS011;23490;53.656;10.076;2023-03-23T07:22:48;7.95;;;3.80;;
37647;SDS011;23490;53.656;10.076;2023-03-23T07:25:16;5.93;;;3.50;;
37647;SDS011;23490;53.656;10.076;2023-03-23T07:27:43;8.30;;;3.90;;
37647;SDS011;23490;53.656;10.076;2023-03-23T07:30:09;10.43;;;3.92;;
37647;SDS011;23490;53.656;10.076;2023-03-23T07:32:36;9.02;;;4.18;;
37647;SDS011;23490;53.656;10.076;2023-03-23T07:35:02;5.65;;;3.35;;
37647;SDS011;23490;53.656;10.076;2023-03-23T07:37:28;6.15;;;3.80;;
37647;SDS011;23490;53.656;10.076;2023-03-23T07:39:54;8.05;;;3.63;;
37647;SDS011;23490;53.656;10.076;2023-03-23T07:42:19;8.43;;;3.95;;
37647;SDS011;23490;53.656;10.076;2023-03-23T07:44:45;4.95;;;3.28;;
37647;SDS011;23490;53.656;10.076;2023-03-23T07:47:11;6.38;;;3.30;;
37647;SDS011;23490;53.656;10.076;2023-03-23T07:49:36;5.85;;;3.20;;
37647;SDS011;23490;53.656;10.076;2023-03-23T07:52:02;7.15;;;4.38;;
37647;SDS011;23490;53.656;10.076;2023-03-23T07:54:27;9.38;;;3.92;;
37647;SDS011;23490;53.656;10.076;2023-03-23T07:56:53;9.70;;;4.57;;
37647;SDS011;23490;53.656;10.076;2023-03-23T07:59:18;6.90;;;4.18;;
37647;SDS011;23490;53.656;10.076;2023-03-23T08:01:44;7.78;;;4.50;;
37647;SDS011;23490;53.656;10.076;2023-03-23T08:04:09;11.63;;;5.10;;
37647;SDS011;23490;53.656;10.076;2023-03-23T08:06:34;9.77;;;5.40;;
37647;SDS011;23490;53.656;10.076;2023-03-23T08:09:00;11.57;;;5.68;;
37647;SDS011;23490;53.656;10.076;2023-03-23T08:11:27;10.57;;;4.22;;
37647;SDS011;23490;53.656;10.076;2023-03-23T08:13:53;4.25;;;1.75;;
37647;SDS011;23490;53.656;10.076;2023-03-23T08:16:19;2.75;;;0.82;;
37647;SDS011;23490;53.656;10.076;2023-03-23T08:18:45;2.13;;;0.70;;
37647;SDS011;23490;53.656;10.076;2023-03-23T08:21:11;1.88;;;0.70;;
37647;SDS011;23490;53.656;10.076;2023-03-23T08:23:36;1.67;;;0.70;;
37647;SDS011;23490;53.656;10.076;2023-03-23T08:26:03;11.30;;;1.45;;
37647;SDS011;23490;53.656;10.076;2023-03-23T08:28:31;2.75;;;1.00;;
37647;SDS011;23490;53.656;10.076;2023-03-23T08:30:56;4.53;;;1.15;;
37647;SDS011;23490;53.656;10.076;2023-03-23T08:33:22;3.75;;;0.80;;
37647;SDS011;23490;53.656;10.076;2023-03-23T08:35:57;2.70;;;1.20;;
37647;SDS011;23490;53.656;10.076;2023-03-23T08:38:23;2.63;;;0.82;;
37647;SDS011;23490;53.656;10.076;2023-03-23T08:40:50;2.95;;;1.10;;
37647;SDS011;23490;53.656;10.076;2023-03-23T08:43:17;3.22;;;1.05;;
37647;SDS011;23490;53.656;10.076;2023-03-23T08:45:43;2.33;;;1.25;;
37647;SDS011;23490;53.656;10.076;2023-03-23T08:48:10;9.80;;;1.88;;
37647;SDS011;23490;53.656;10.076;2023-03-23T08:50:36;3.00;;;1.23;;
37647;SDS011;23490;53.656;10.076;2023-03-23T08:53:01;5.45;;;2.00;;
37647;SDS011;23490;53.656;10.076;2023-03-23T08:55:28;7.07;;;2.17;;
37647;SDS011;23490;53.656;10.076;2023-03-23T08:57:54;4.13;;;1.50;;
37647;SDS011;23490;53.656;10.076;2023-03-23T09:00:20;7.18;;;1.80;;
37647;SDS011;23490;53.656;10.076;2023-03-23T09:02:49;2.95;;;1.35;;
37647;SDS011;23490;53.656;10.076;2023-03-23T09:05:17;5.28;;;1.70;;
37647;SDS011;23490;53.656;10.076;2023-03-23T09:07:46;4.18;;;1.60;;
37647;SDS011;23490;53.656;10.076;2023-03-23T09:10:13;7.50;;;2.50;;
37647;SDS011;23490;53.656;10.076;2023-03-23T09:12:40;6.45;;;1.92;;
37647;SDS011;23490;53.656;10.076;2023-03-23T09:15:07;4.03;;;1.83;;
37647;SDS011;23490;53.656;10.076;2023-03-23T09:17:42;5.20;;;2.05;;
37647;SDS011;23490;53.656;10.076;2023-03-23T09:20:10;5.57;;;2.60;;
37647;SDS011;23490;53.656;10.076;2023-03-23T09:22:43;4.45;;;2.17;;
37647;SDS011;23490;53.656;10.076;2023-03-23T09:25:14;6.90;;;2.22;;
37647;SDS011;23490;53.656;10.076;2023-03-23T09:27:42;5.72;;;2.20;;
37647;SDS011;23490;53.656;10.076;2023-03-23T09:30:11;6.47;;;2.42;;
37647;SDS011;23490;53.656;10.076;2023-03-23T09:32:38;7.38;;;1.90;;
37647;SDS011;23490;53.656;10.076;2023-03-23T09:35:05;7.22;;;2.28;;
37647;SDS011;23490;53.656;10.076;2023-03-23T09:37:33;6.45;;;2.03;;
37647;SDS011;23490;53.656;10.076;2023-03-23T09:40:00;6.53;;;2.00;;
37647;SDS011;23490;53.656;10.076;2023-03-23T09:42:35;9.57;;;2.45;;
37647;SDS011;23490;53.656;10.076;2023-03-23T09:50:52;13.63;;;2.03;;
37647;SDS011;23490;53.656;10.076;2023-03-23T09:53:42;7.78;;;2.33;;
37647;SDS011;23490;53.656;10.076;2023-03-23T09:56:14;7.88;;;2.67;;
37647;SDS011;23490;53.656;10.076;2023-03-23T10:01:19;8.80;;;1.92;;
37647;SDS011;23490;53.656;10.076;2023-03-23T10:03:50;8.88;;;1.77;;
37647;SDS011;23490;53.656;10.076;2023-03-23T10:06:20;7.45;;;2.10;;
37647;SDS011;23490;53.656;10.076;2023-03-23T10:08:49;8.05;;;1.75;;
37647;SDS011;23490;53.656;10.076;2023-03-23T10:17:07;6.15;;;2.00;;
37647;SDS011;23490;53.656;10.076;2023-03-23T10:19:42;8.65;;;1.95;;
37647;SDS011;23490;53.656;10.076;2023-03-23T10:22:14;5.78;;;1.73;;
37647;SDS011;23490;53.656;10.076;2023-03-23T10:33:01;8.00;;;1.85;;
37647;SDS011;23490;53.656;10.076;2023-03-23T10:35:39;7.93;;;2.05;;
37647;SDS011;23490;53.656;10.076;2023-03-23T10:38:12;6.10;;;1.77;;
37647;SDS011;23490;53.656;10.076;2023-03-23T10:40:52;4.72;;;1.50;;
37647;SDS011;23490;53.656;10.076;2023-03-23T10:43:21;9.30;;;1.75;;
37647;SDS011;23490;53.656;10.076;2023-03-23T10:45:50;7.82;;;1.83;;
37647;SDS011;23490;53.656;10.076;2023-03-23T10:48:30;7.38;;;1.75;;
37647;SDS011;23490;53.656;10.076;2023-03-23T10:51:00;4.75;;;1.40;;
37647;SDS011;23490;53.656;10.076;2023-03-23T10:53:32;4.97;;;1.77;;
37647;SDS011;23490;53.656;10.076;2023-03-23T10:56:05;6.00;;;1.40;;
37647;SDS011;23490;53.656;10.076;2023-03-23T10:58:45;10.68;;;2.10;;
37647;SDS011;23490;53.656;10.076;2023-03-23T11:01:11;7.30;;;1.77;;
37647;SDS011;23490;53.656;10.076;2023-03-23T11:03:44;8.50;;;1.58;;
37647;SDS011;23490;53.656;10.076;2023-03-23T11:06:21;8.13;;;1.73;;
37647;SDS011;23490;53.656;10.076;2023-03-23T11:08:54;7.05;;;1.92;;
37647;SDS011;23490;53.656;10.076;2023-03-23T11:11:28;7.57;;;2.03;;
37647;SDS011;23490;53.656;10.076;2023-03-23T11:14:00;8.43;;;1.75;;
37647;SDS011;23490;53.656;10.076;2023-03-23T11:16:30;6.90;;;1.98;;
37647;SDS011;23490;53.656;10.076;2023-03-23T11:18:58;7.03;;;1.73;;
37647;SDS011;23490;53.656;10.076;2023-03-23T11:21:25;8.27;;;2.10;;
37647;SDS011;23490;53.656;10.076;2023-03-23T11:23:55;11.05;;;1.63;;
37647;SDS011;23490;53.656;10.076;2023-03-23T11:26:29;7.75;;;1.70;;
37647;SDS011;23490;53.656;10.076;2023-03-23T11:28:57;7.50;;;2.00;;
37647;SDS011;23490;53.656;10.076;2023-03-23T11:31:43;10.63;;;2.65;;
37647;SDS011;23490;53.656;10.076;2023-03-23T11:34:32;5.68;;;1.70;;
37647;SDS011;23490;53.656;10.076;2023-03-23T11:37:01;9.93;;;2.45;;
37647;SDS011;23490;53.656;10.076;2023-03-23T11:39:35;9.13;;;2.47;;
37647;SDS011;23490;53.656;10.076;2023-03-23T11:42:21;9.15;;;2.30;;
37647;SDS011;23490;53.656;10.076;2023-03-23T11:44:53;11.15;;;2.67;;
37647;SDS011;23490;53.656;10.076;2023-03-23T11:50:00;8.93;;;2.00;;
37647;SDS011;23490;53.656;10.076;2023-03-23T11:52:46;7.47;;;2.15;;
37647;SDS011;23490;53.656;10.076;2023-03-23T11:55:23;6.43;;;1.67;;
37647;SDS011;23490;53.656;10.076;2023-03-23T11:57:55;9.48;;;2.55;;
37647;SDS011;23490;53.656;10.076;2023-03-23T12:00:25;11.38;;;2.35;;
37647;SDS011;23490;53.656;10.076;2023-03-23T12:06:05;12.57;;;2.25;;
37647;SDS011;23490;53.656;10.076;2023-03-23T12:14:14;8.70;;;1.70;;
37647;SDS011;23490;53.656;10.076;2023-03-23T12:25:17;6.93;;;2.17;;
37647;SDS011;23490;53.656;10.076;2023-03-23T12:30:45;7.57;;;2.35;;
37647;SDS011;23490;53.656;10.076;2023-03-23T12:36:32;6.20;;;2.13;;
37647;SDS011;23490;53.656;10.076;2023-03-23T12:50:07;7.30;;;3.28;;
37647;SDS011;23490;53.656;10.076;2023-03-23T12:55:24;8.63;;;2.78;;
37647;SDS011;23490;53.656;10.076;2023-03-23T12:57:59;10.98;;;3.03;;
37647;SDS011;23490;53.656;10.076;2023-03-23T13:00:30;6.65;;;2.70;;
37647;SDS011;23490;53.656;10.076;2023-03-23T13:03:17;9.57;;;2.40;;
37647;SDS011;23490;53.656;10.076;2023-03-23T13:08:39;8.23;;;3.20;;
37647;SDS011;23490;53.656;10.076;2023-03-23T13:11:55;9.13;;;2.25;;
37647;SDS011;23490;53.656;10.076;2023-03-23T13:14:02;8.38;;;2.63;;
37647;SDS011;23490;53.656;10.076;2023-03-23T13:16:58;11.10;;;3.13;;
37647;SDS011;23490;53.656;10.076;2023-03-23T13:22:54;7.95;;;2.70;;
37647;SDS011;23490;53.656;10.076;2023-03-23T13:28:16;8.18;;;2.72;;
37647;SDS011;23490;53.656;10.076;2023-03-23T13:31:01;6.88;;;2.53;;
37647;SDS011;23490;53.656;10.076;2023-03-23T13:33:31;6.88;;;2.08;;
37647;SDS011;23490;53.656;10.076;2023-03-23T13:36:34;8.45;;;2.53;;
37647;SDS011;23490;53.656;10.076;2023-03-23T13:39:00;8.38;;;2.30;;
37647;SDS011;23490;53.656;10.076;2023-03-23T13:41:29;7.32;;;2.05;;
37647;SDS011;23490;53.656;10.076;2023-03-23T13:44:05;7.30;;;1.90;;
37647;SDS011;23490;53.656;10.076;2023-03-23T13:46:41;7.03;;;1.88;;
37647;SDS011;23490;53.656;10.076;2023-03-23T13:49:18;9.15;;;1.65;;
37647;SDS011;23490;53.656;10.076;2023-03-23T13:51:51;5.95;;;1.80;;
37647;SDS011;23490;53.656;10.076;2023-03-23T13:56:52;6.93;;;2.13;;
37647;SDS011;23490;53.656;10.076;2023-03-23T13:59:30;4.43;;;1.13;;
37647;SDS011;23490;53.656;10.076;2023-03-23T14:04:55;8.88;;;1.83;;
37647;SDS011;23490;53.656;10.076;2023-03-23T14:07:21;9.98;;;1.20;;
37647;SDS011;23490;53.656;10.076;2023-03-23T14:09:49;4.03;;;1.25;;
37647;SDS011;23490;53.656;10.076;2023-03-23T14:14:47;3.92;;;0.70;;
37647;SDS011;23490;53.656;10.076;2023-03-23T14:17:16;2.53;;;0.80;;
37647;SDS011;23490;53.656;10.076;2023-03-23T14:19:53;3.90;;;1.30;;
37647;SDS011;23490;53.656;10.076;2023-03-23T14:22:27;2.53;;;1.10;;
37647;SDS011;23490;53.656;10.076;2023-03-23T14:25:11;2.35;;;0.80;;
37647;SDS011;23490;53.656;10.076;2023-03-23T14:27:41;3.08;;;1.13;;
37647;SDS011;23490;53.656;10.076;2023-03-23T14:30:08;3.63;;;1.17;;
37647;SDS011;23490;53.656;10.076;2023-03-23T14:32:38;4.00;;;1.25;;
37647;SDS011;23490;53.656;10.076;2023-03-23T14:35:05;3.70;;;1.48;;
37647;SDS011;23490;53.656;10.076;2023-03-23T14:37:40;4.40;;;1.17;;
37647;SDS011;23490;53.656;10.076;2023-03-23T14:40:08;4.03;;;1.30;;
37647;SDS011;23490;53.656;10.076;2023-03-23T14:42:39;3.03;;;1.08;;
37647;SDS011;23490;53.656;10.076;2023-03-23T14:45:04;3.10;;;0.88;;
37647;SDS011;23490;53.656;10.076;2023-03-23T14:47:35;5.53;;;1.40;;
37647;SDS011;23490;53.656;10.076;2023-03-23T14:50:04;4.20;;;1.13;;
37647;SDS011;23490;53.656;10.076;2023-03-23T14:52:33;3.65;;;1.30;;
37647;SDS011;23490;53.656;10.076;2023-03-23T14:55:11;2.95;;;1.17;;
37647;SDS011;23490;53.656;10.076;2023-03-23T14:57:42;4.55;;;1.38;;
37647;SDS011;23490;53.656;10.076;2023-03-23T15:00:13;4.50;;;1.02;;
37647;SDS011;23490;53.656;10.076;2023-03-23T15:02:40;4.85;;;1.20;;
37647;SDS011;23490;53.656;10.076;2023-03-23T15:05:13;2.30;;;1.00;;
37647;SDS011;23490;53.656;10.076;2023-03-23T15:07:42;3.28;;;1.00;;
37647;SDS011;23490;53.656;10.076;2023-03-23T15:10:16;3.00;;;1.20;;
37647;SDS011;23490;53.656;10.076;2023-03-23T15:12:44;3.65;;;1.33;;
37647;SDS011;23490;53.656;10.076;2023-03-23T15:15:22;4.80;;;1.15;;
37647;SDS011;23490;53.656;10.076;2023-03-23T15:17:51;4.30;;;1.15;;
37647;SDS011;23490;53.656;10.076;2023-03-23T15:20:28;5.10;;;1.38;;
37647;SDS011;23490;53.656;10.076;2023-03-23T15:22:55;4.57;;;1.40;;
37647;SDS011;23490;53.656;10.076;2023-03-23T15:25:22;4.07;;;1.40;;
37647;SDS011;23490;53.656;10.076;2023-03-23T15:27:56;6.05;;;1.30;;
37647;SDS011;23490;53.656;10.076;2023-03-23T15:32:49;5.50;;;1.10;;
37647;SDS011;23490;53.656;10.076;2023-03-23T15:35:21;5.47;;;1.70;;
37647;SDS011;23490;53.656;10.076;2023-03-23T15:37:50;5.90;;;1.92;;
37647;SDS011;23490;53.656;10.076;2023-03-23T15:40:34;6.20;;;2.20;;
37647;SDS011;23490;53.656;10.076;2023-03-23T15:43:15;4.40;;;1.70;;
37647;SDS011;23490;53.656;10.076;2023-03-23T15:48:50;6.75;;;2.67;;
37647;SDS011;23490;53.656;10.076;2023-03-23T15:51:41;7.97;;;2.42;;
37647;SDS011;23490;53.656;10.076;2023-03-23T15:54:12;7.85;;;2.50;;
37647;SDS011;23490;53.656;10.076;2023-03-23T15:56:39;9.95;;;2.60;;
37647;SDS011;23490;53.656;10.076;2023-03-23T15:59:07;6.47;;;1.98;;
37647;SDS011;23490;53.656;10.076;2023-03-23T16:01:33;14.90;;;3.00;;
37647;SDS011;23490;53.656;10.076;2023-03-23T16:06:36;6.85;;;2.42;;
37647;SDS011;23490;53.656;10.076;2023-03-23T16:09:03;6.47;;;1.90;;
37647;SDS011;23490;53.656;10.076;2023-03-23T16:11:30;6.30;;;2.35;;
37647;SDS011;23490;53.656;10.076;2023-03-23T16:13:57;6.82;;;2.22;;
37647;SDS011;23490;53.656;10.076;2023-03-23T16:16:24;9.13;;;2.63;;
37647;SDS011;23490;53.656;10.076;2023-03-23T16:18:51;7.97;;;2.90;;
37647;SDS011;23490;53.656;10.076;2023-03-23T16:21:16;6.50;;;2.38;;
37647;SDS011;23490;53.656;10.076;2023-03-23T16:23:42;5.35;;;1.98;;
37647;SDS011;23490;53.656;10.076;2023-03-23T16:26:10;5.93;;;1.40;;
37647;SDS011;23490;53.656;10.076;2023-03-23T16:28:36;5.28;;;1.48;;